sensor_id;sensor_type;location;lat;lon;timestamp;P1;durP1;ratioP1;P2;durP2;ratioP2
54388;SDS011;40975;50.390;8.640;2023-06-26T00:01:44;5.72;;;3.88;;
54388;SDS011;40975;50.390;8.640;2023-06-26T00:04:09;5.80;;;3.88;;
54388;SDS011;40975;50.390;8.640;2023-06-26T00:06:39;5.78;;;3.70;;
54388;SDS011;40975;50.390;8.640;2023-06-26T00:09:05;6.00;;;3.67;;
54388;SDS011;40975;50.390;8.640;2023-06-26T00:11:30;4.85;;;3.85;;
54388;SDS011;40975;50.390;8.640;2023-06-26T00:13:58;6.68;;;3.90;;
54388;SDS011;40975;50.390;8.640;2023-06-26T00:16:25;5.25;;;3.70;;
54388;SDS011;40975;50.390;8.640;2023-06-26T00:18:50;5.82;;;3.97;;
54388;SDS011;40975;50.390;8.640;2023-06-26T00:21:16;5.10;;;3.50;;
54388;SDS011;40975;50.390;8.640;2023-06-26T00:23:41;9.13;;;4.25;;
54388;SDS011;40975;50.390;8.640;2023-06-26T00:26:07;6.55;;;4.30;;
54388;SDS011;40975;50.390;8.640;2023-06-26T00:28:34;6.15;;;3.80;;
54388;SDS011;40975;50.390;8.640;2023-06-26T00:30:59;5.22;;;3.67;;
54388;SDS011;40975;50.390;8.640;2023-06-26T00:33:28;5.60;;;3.65;;
54388;SDS011;40975;50.390;8.640;2023-06-26T00:35:53;6.28;;;3.80;;
54388;SDS011;40975;50.390;8.640;2023-06-26T00:38:19;7.10;;;3.85;;
54388;SDS011;40975;50.390;8.640;2023-06-26T00:40:44;6.72;;;4.10;;
54388;SDS011;40975;50.390;8.640;2023-06-26T00:43:10;6.03;;;3.88;;
54388;SDS011;40975;50.390;8.640;2023-06-26T00:45:35;5.65;;;3.72;;
54388;SDS011;40975;50.390;8.640;2023-06-26T00:48:01;5.22;;;3.97;;
54388;SDS011;40975;50.390;8.640;2023-06-26T00:50:28;6.68;;;3.80;;
54388;SDS011;40975;50.390;8.640;2023-06-26T00:52:53;6.75;;;3.95;;
54388;SDS011;40975;50.390;8.640;2023-06-26T00:55:22;5.40;;;3.90;;
54388;SDS011;40975;50.390;8.640;2023-06-26T00:57:47;4.20;;;3.35;;
54388;SDS011;40975;50.390;8.640;2023-06-26T01:00:13;4.63;;;3.50;;
54388;SDS011;40975;50.390;8.640;2023-06-26T01:02:39;6.57;;;4.20;;
54388;SDS011;40975;50.390;8.640;2023-06-26T01:05:04;4.50;;;3.70;;
54388;SDS011;40975;50.390;8.640;2023-06-26T01:07:34;5.80;;;4.05;;
54388;SDS011;40975;50.390;8.640;2023-06-26T01:10:04;5.78;;;4.05;;
54388;SDS011;40975;50.390;8.640;2023-06-26T01:12:31;5.03;;;3.88;;
54388;SDS011;40975;50.390;8.640;2023-06-26T01:14:58;7.07;;;4.20;;
54388;SDS011;40975;50.390;8.640;2023-06-26T01:17:25;4.57;;;3.60;;
54388;SDS011;40975;50.390;8.640;2023-06-26T01:19:56;4.30;;;3.75;;
54388;SDS011;40975;50.390;8.640;2023-06-26T01:27:49;5.55;;;4.13;;
54388;SDS011;40975;50.390;8.640;2023-06-26T01:30:17;6.32;;;4.07;;
54388;SDS011;40975;50.390;8.640;2023-06-26T01:32:45;6.05;;;4.32;;
54388;SDS011;40975;50.390;8.640;2023-06-26T01:35:11;5.32;;;3.90;;
54388;SDS011;40975;50.390;8.640;2023-06-26T01:37:37;5.35;;;4.32;;
54388;SDS011;40975;50.390;8.640;2023-06-26T01:40:03;6.03;;;4.57;;
54388;SDS011;40975;50.390;8.640;2023-06-26T01:42:31;5.88;;;4.10;;
54388;SDS011;40975;50.390;8.640;2023-06-26T01:44:57;5.72;;;4.13;;
54388;SDS011;40975;50.390;8.640;2023-06-26T01:47:27;6.03;;;4.15;;
54388;SDS011;40975;50.390;8.640;2023-06-26T01:52:42;7.25;;;4.15;;
54388;SDS011;40975;50.390;8.640;2023-06-26T01:55:15;5.65;;;4.20;;
54388;SDS011;40975;50.390;8.640;2023-06-26T01:57:47;7.20;;;4.88;;
54388;SDS011;40975;50.390;8.640;2023-06-26T02:00:14;6.63;;;3.85;;
54388;SDS011;40975;50.390;8.640;2023-06-26T02:02:42;6.82;;;4.10;;
54388;SDS011;40975;50.390;8.640;2023-06-26T02:05:12;6.95;;;4.82;;
54388;SDS011;40975;50.390;8.640;2023-06-26T02:07:38;7.63;;;4.50;;
54388;SDS011;40975;50.390;8.640;2023-06-26T02:10:04;7.60;;;3.95;;
54388;SDS011;40975;50.390;8.640;2023-06-26T02:12:31;4.85;;;3.53;;
54388;SDS011;40975;50.390;8.640;2023-06-26T02:14:56;6.80;;;4.30;;
54388;SDS011;40975;50.390;8.640;2023-06-26T02:17:23;6.20;;;3.88;;
54388;SDS011;40975;50.390;8.640;2023-06-26T02:19:49;7.13;;;4.38;;
54388;SDS011;40975;50.390;8.640;2023-06-26T02:22:15;7.65;;;4.53;;
54388;SDS011;40975;50.390;8.640;2023-06-26T02:24:41;5.03;;;4.20;;
54388;SDS011;40975;50.390;8.640;2023-06-26T02:27:06;4.97;;;3.88;;
54388;SDS011;40975;50.390;8.640;2023-06-26T02:29:34;6.25;;;4.50;;
54388;SDS011;40975;50.390;8.640;2023-06-26T02:32:00;5.38;;;3.88;;
54388;SDS011;40975;50.390;8.640;2023-06-26T02:34:25;6.22;;;4.15;;
54388;SDS011;40975;50.390;8.640;2023-06-26T02:36:50;6.20;;;3.97;;
54388;SDS011;40975;50.390;8.640;2023-06-26T02:39:19;6.10;;;4.40;;
54388;SDS011;40975;50.390;8.640;2023-06-26T02:41:44;5.32;;;3.80;;
54388;SDS011;40975;50.390;8.640;2023-06-26T02:44:10;5.68;;;4.00;;
54388;SDS011;40975;50.390;8.640;2023-06-26T02:46:37;5.22;;;4.38;;
54388;SDS011;40975;50.390;8.640;2023-06-26T02:49:02;6.47;;;4.65;;
54388;SDS011;40975;50.390;8.640;2023-06-26T02:51:28;5.40;;;4.13;;
54388;SDS011;40975;50.390;8.640;2023-06-26T02:53:55;5.00;;;3.90;;
54388;SDS011;40975;50.390;8.640;2023-06-26T02:56:20;5.30;;;4.40;;
54388;SDS011;40975;50.390;8.640;2023-06-26T02:58:46;6.95;;;4.05;;
54388;SDS011;40975;50.390;8.640;2023-06-26T03:01:11;8.60;;;3.88;;
54388;SDS011;40975;50.390;8.640;2023-06-26T03:03:37;6.03;;;3.80;;
54388;SDS011;40975;50.390;8.640;2023-06-26T03:06:07;5.30;;;3.60;;
54388;SDS011;40975;50.390;8.640;2023-06-26T03:08:36;4.55;;;3.70;;
54388;SDS011;40975;50.390;8.640;2023-06-26T03:11:02;5.75;;;3.97;;
54388;SDS011;40975;50.390;8.640;2023-06-26T03:13:27;6.47;;;4.55;;
54388;SDS011;40975;50.390;8.640;2023-06-26T03:15:52;5.50;;;4.20;;
54388;SDS011;40975;50.390;8.640;2023-06-26T03:18:18;4.90;;;3.72;;
54388;SDS011;40975;50.390;8.640;2023-06-26T03:20:43;7.45;;;3.65;;
54388;SDS011;40975;50.390;8.640;2023-06-26T03:23:09;5.88;;;3.65;;
54388;SDS011;40975;50.390;8.640;2023-06-26T03:25:34;5.85;;;4.10;;
54388;SDS011;40975;50.390;8.640;2023-06-26T03:28:14;5.38;;;3.90;;
54388;SDS011;40975;50.390;8.640;2023-06-26T03:30:41;5.28;;;4.10;;
54388;SDS011;40975;50.390;8.640;2023-06-26T03:33:06;5.03;;;3.65;;
54388;SDS011;40975;50.390;8.640;2023-06-26T03:35:32;5.40;;;4.05;;
54388;SDS011;40975;50.390;8.640;2023-06-26T03:37:58;7.90;;;3.92;;
54388;SDS011;40975;50.390;8.640;2023-06-26T03:40:26;7.35;;;4.13;;
54388;SDS011;40975;50.390;8.640;2023-06-26T03:42:52;6.68;;;3.92;;
54388;SDS011;40975;50.390;8.640;2023-06-26T03:45:18;6.20;;;3.72;;
54388;SDS011;40975;50.390;8.640;2023-06-26T03:47:44;6.80;;;4.03;;
54388;SDS011;40975;50.390;8.640;2023-06-26T03:50:13;7.30;;;4.00;;
54388;SDS011;40975;50.390;8.640;2023-06-26T03:52:39;6.57;;;4.45;;
54388;SDS011;40975;50.390;8.640;2023-06-26T03:55:05;5.30;;;3.65;;
54388;SDS011;40975;50.390;8.640;2023-06-26T03:57:30;5.50;;;3.72;;
54388;SDS011;40975;50.390;8.640;2023-06-26T03:59:56;5.78;;;3.88;;
54388;SDS011;40975;50.390;8.640;2023-06-26T04:02:21;5.57;;;3.83;;
54388;SDS011;40975;50.390;8.640;2023-06-26T04:04:47;6.38;;;3.85;;
54388;SDS011;40975;50.390;8.640;2023-06-26T04:07:13;6.65;;;4.07;;
54388;SDS011;40975;50.390;8.640;2023-06-26T04:09:38;5.45;;;3.75;;
54388;SDS011;40975;50.390;8.640;2023-06-26T04:12:05;6.68;;;4.68;;
54388;SDS011;40975;50.390;8.640;2023-06-26T04:14:31;6.05;;;4.07;;
54388;SDS011;40975;50.390;8.640;2023-06-26T04:16:56;5.47;;;4.30;;
54388;SDS011;40975;50.390;8.640;2023-06-26T04:19:23;6.80;;;4.43;;
54388;SDS011;40975;50.390;8.640;2023-06-26T04:21:48;6.93;;;4.10;;
54388;SDS011;40975;50.390;8.640;2023-06-26T04:24:13;5.70;;;4.18;;
54388;SDS011;40975;50.390;8.640;2023-06-26T04:26:39;6.28;;;4.18;;
54388;SDS011;40975;50.390;8.640;2023-06-26T04:29:06;6.90;;;4.55;;
54388;SDS011;40975;50.390;8.640;2023-06-26T04:31:32;5.57;;;4.32;;
54388;SDS011;40975;50.390;8.640;2023-06-26T04:33:57;5.63;;;3.97;;
54388;SDS011;40975;50.390;8.640;2023-06-26T04:36:24;6.78;;;3.95;;
54388;SDS011;40975;50.390;8.640;2023-06-26T04:38:53;5.65;;;3.95;;
54388;SDS011;40975;50.390;8.640;2023-06-26T04:41:19;6.00;;;4.40;;
54388;SDS011;40975;50.390;8.640;2023-06-26T04:43:44;6.90;;;4.20;;
54388;SDS011;40975;50.390;8.640;2023-06-26T04:46:10;6.55;;;4.75;;
54388;SDS011;40975;50.390;8.640;2023-06-26T04:48:35;6.72;;;3.92;;
54388;SDS011;40975;50.390;8.640;2023-06-26T04:51:01;6.57;;;5.28;;
54388;SDS011;40975;50.390;8.640;2023-06-26T04:53:26;5.68;;;4.80;;
54388;SDS011;40975;50.390;8.640;2023-06-26T04:55:52;6.70;;;5.25;;
54388;SDS011;40975;50.390;8.640;2023-06-26T04:58:18;6.25;;;4.90;;
54388;SDS011;40975;50.390;8.640;2023-06-26T05:00:43;7.80;;;4.53;;
54388;SDS011;40975;50.390;8.640;2023-06-26T05:03:09;8.25;;;4.88;;
54388;SDS011;40975;50.390;8.640;2023-06-26T05:05:36;6.30;;;5.10;;
54388;SDS011;40975;50.390;8.640;2023-06-26T05:08:12;9.05;;;5.25;;
54388;SDS011;40975;50.390;8.640;2023-06-26T05:10:42;7.28;;;5.07;;
54388;SDS011;40975;50.390;8.640;2023-06-26T05:13:07;7.47;;;5.68;;
54388;SDS011;40975;50.390;8.640;2023-06-26T05:15:33;8.95;;;5.43;;
54388;SDS011;40975;50.390;8.640;2023-06-26T05:18:23;8.70;;;5.72;;
54388;SDS011;40975;50.390;8.640;2023-06-26T05:20:49;8.95;;;5.70;;
54388;SDS011;40975;50.390;8.640;2023-06-26T05:23:14;8.82;;;5.63;;
54388;SDS011;40975;50.390;8.640;2023-06-26T05:25:41;7.88;;;6.15;;
54388;SDS011;40975;50.390;8.640;2023-06-26T05:28:07;12.80;;;6.55;;
54388;SDS011;40975;50.390;8.640;2023-06-26T05:30:35;8.95;;;6.18;;
54388;SDS011;40975;50.390;8.640;2023-06-26T05:33:01;8.43;;;5.90;;
54388;SDS011;40975;50.390;8.640;2023-06-26T05:35:30;8.55;;;6.10;;
54388;SDS011;40975;50.390;8.640;2023-06-26T05:37:56;7.40;;;5.63;;
54388;SDS011;40975;50.390;8.640;2023-06-26T05:40:23;7.97;;;5.60;;
54388;SDS011;40975;50.390;8.640;2023-06-26T05:42:49;7.88;;;5.60;;
54388;SDS011;40975;50.390;8.640;2023-06-26T05:45:14;8.23;;;5.05;;
54388;SDS011;40975;50.390;8.640;2023-06-26T05:47:40;10.23;;;5.57;;
54388;SDS011;40975;50.390;8.640;2023-06-26T05:50:06;6.30;;;5.32;;
54388;SDS011;40975;50.390;8.640;2023-06-26T05:52:33;6.35;;;5.15;;
54388;SDS011;40975;50.390;8.640;2023-06-26T05:54:58;7.05;;;5.40;;
54388;SDS011;40975;50.390;8.640;2023-06-26T05:57:25;6.07;;;4.95;;
54388;SDS011;40975;50.390;8.640;2023-06-26T05:59:52;6.93;;;5.13;;
54388;SDS011;40975;50.390;8.640;2023-06-26T06:02:18;5.55;;;4.95;;
54388;SDS011;40975;50.390;8.640;2023-06-26T06:04:43;6.90;;;5.07;;
54388;SDS011;40975;50.390;8.640;2023-06-26T06:07:09;6.20;;;4.60;;
54388;SDS011;40975;50.390;8.640;2023-06-26T06:09:34;6.88;;;4.70;;
54388;SDS011;40975;50.390;8.640;2023-06-26T06:11:59;8.93;;;5.30;;
54388;SDS011;40975;50.390;8.640;2023-06-26T06:14:26;6.35;;;4.57;;
54388;SDS011;40975;50.390;8.640;2023-06-26T06:16:53;5.55;;;5.05;;
54388;SDS011;40975;50.390;8.640;2023-06-26T06:19:18;6.03;;;5.03;;
54388;SDS011;40975;50.390;8.640;2023-06-26T06:21:43;6.35;;;4.90;;
54388;SDS011;40975;50.390;8.640;2023-06-26T06:24:09;6.13;;;5.13;;
54388;SDS011;40975;50.390;8.640;2023-06-26T06:26:34;6.78;;;5.25;;
54388;SDS011;40975;50.390;8.640;2023-06-26T06:29:00;6.68;;;4.97;;
54388;SDS011;40975;50.390;8.640;2023-06-26T06:31:25;6.38;;;5.20;;
54388;SDS011;40975;50.390;8.640;2023-06-26T06:33:53;7.93;;;5.15;;
54388;SDS011;40975;50.390;8.640;2023-06-26T06:36:19;8.05;;;5.20;;
54388;SDS011;40975;50.390;8.640;2023-06-26T06:38:44;6.63;;;5.30;;
54388;SDS011;40975;50.390;8.640;2023-06-26T06:41:10;6.40;;;4.70;;
54388;SDS011;40975;50.390;8.640;2023-06-26T06:43:36;5.05;;;4.45;;
54388;SDS011;40975;50.390;8.640;2023-06-26T06:46:01;6.13;;;4.97;;
54388;SDS011;40975;50.390;8.640;2023-06-26T06:48:27;6.72;;;5.30;;
54388;SDS011;40975;50.390;8.640;2023-06-26T06:50:52;9.02;;;6.00;;
54388;SDS011;40975;50.390;8.640;2023-06-26T06:53:18;6.53;;;5.30;;
54388;SDS011;40975;50.390;8.640;2023-06-26T06:55:45;7.05;;;5.35;;
54388;SDS011;40975;50.390;8.640;2023-06-26T06:58:11;8.45;;;5.30;;
54388;SDS011;40975;50.390;8.640;2023-06-26T07:00:36;7.78;;;6.22;;
54388;SDS011;40975;50.390;8.640;2023-06-26T07:03:01;6.95;;;5.25;;
54388;SDS011;40975;50.390;8.640;2023-06-26T07:05:27;9.38;;;6.10;;
54388;SDS011;40975;50.390;8.640;2023-06-26T07:07:52;6.85;;;4.82;;
54388;SDS011;40975;50.390;8.640;2023-06-26T07:10:18;7.43;;;5.85;;
54388;SDS011;40975;50.390;8.640;2023-06-26T07:12:43;5.78;;;5.15;;
54388;SDS011;40975;50.390;8.640;2023-06-26T07:15:09;5.80;;;5.20;;
54388;SDS011;40975;50.390;8.640;2023-06-26T07:17:35;6.10;;;5.03;;
54388;SDS011;40975;50.390;8.640;2023-06-26T07:20:01;6.22;;;5.22;;
54388;SDS011;40975;50.390;8.640;2023-06-26T07:22:30;7.85;;;5.95;;
54388;SDS011;40975;50.390;8.640;2023-06-26T07:24:56;8.43;;;4.97;;
54388;SDS011;40975;50.390;8.640;2023-06-26T07:27:21;6.38;;;5.03;;
54388;SDS011;40975;50.390;8.640;2023-06-26T07:29:47;6.40;;;4.75;;
54388;SDS011;40975;50.390;8.640;2023-06-26T07:32:12;6.70;;;4.90;;
54388;SDS011;40975;50.390;8.640;2023-06-26T07:34:38;7.95;;;5.25;;
54388;SDS011;40975;50.390;8.640;2023-06-26T07:37:03;9.77;;;5.40;;
54388;SDS011;40975;50.390;8.640;2023-06-26T07:39:29;5.45;;;4.53;;
54388;SDS011;40975;50.390;8.640;2023-06-26T07:41:54;5.72;;;5.13;;
54388;SDS011;40975;50.390;8.640;2023-06-26T07:44:20;5.18;;;4.43;;
54388;SDS011;40975;50.390;8.640;2023-06-26T07:46:46;6.93;;;5.15;;
54388;SDS011;40975;50.390;8.640;2023-06-26T07:49:11;5.78;;;5.03;;
54388;SDS011;40975;50.390;8.640;2023-06-26T07:51:37;7.32;;;5.00;;
54388;SDS011;40975;50.390;8.640;2023-06-26T07:54:02;6.35;;;5.30;;
54388;SDS011;40975;50.390;8.640;2023-06-26T07:56:28;6.57;;;4.93;;
54388;SDS011;40975;50.390;8.640;2023-06-26T07:58:53;6.82;;;4.57;;
54388;SDS011;40975;50.390;8.640;2023-06-26T08:01:18;7.93;;;4.80;;
54388;SDS011;40975;50.390;8.640;2023-06-26T08:03:44;6.65;;;4.45;;
54388;SDS011;40975;50.390;8.640;2023-06-26T08:06:09;4.38;;;3.97;;
54388;SDS011;40975;50.390;8.640;2023-06-26T08:08:35;6.80;;;5.10;;
54388;SDS011;40975;50.390;8.640;2023-06-26T08:11:00;4.97;;;4.13;;
54388;SDS011;40975;50.390;8.640;2023-06-26T08:13:25;5.05;;;4.55;;
54388;SDS011;40975;50.390;8.640;2023-06-26T08:15:51;4.95;;;4.25;;
54388;SDS011;40975;50.390;8.640;2023-06-26T08:18:17;4.53;;;4.10;;
54388;SDS011;40975;50.390;8.640;2023-06-26T08:20:43;5.22;;;4.20;;
54388;SDS011;40975;50.390;8.640;2023-06-26T08:23:08;8.70;;;3.63;;
54388;SDS011;40975;50.390;8.640;2023-06-26T08:25:33;3.70;;;3.40;;
54388;SDS011;40975;50.390;8.640;2023-06-26T08:27:59;4.45;;;3.55;;
54388;SDS011;40975;50.390;8.640;2023-06-26T08:30:24;4.38;;;3.97;;
54388;SDS011;40975;50.390;8.640;2023-06-26T08:32:53;4.20;;;3.78;;
54388;SDS011;40975;50.390;8.640;2023-06-26T08:35:21;4.25;;;3.67;;
54388;SDS011;40975;50.390;8.640;2023-06-26T08:37:46;5.53;;;3.35;;
54388;SDS011;40975;50.390;8.640;2023-06-26T08:40:12;4.07;;;3.67;;
54388;SDS011;40975;50.390;8.640;2023-06-26T08:42:37;3.95;;;3.55;;
54388;SDS011;40975;50.390;8.640;2023-06-26T08:45:03;3.95;;;3.63;;
54388;SDS011;40975;50.390;8.640;2023-06-26T08:47:29;3.72;;;3.42;;
54388;SDS011;40975;50.390;8.640;2023-06-26T08:50:01;4.13;;;3.80;;
54388;SDS011;40975;50.390;8.640;2023-06-26T08:52:33;5.10;;;3.92;;
54388;SDS011;40975;50.390;8.640;2023-06-26T08:55:02;5.00;;;3.60;;
54388;SDS011;40975;50.390;8.640;2023-06-26T08:59:57;6.43;;;3.90;;
54388;SDS011;40975;50.390;8.640;2023-06-26T09:02:22;4.93;;;4.25;;
54388;SDS011;40975;50.390;8.640;2023-06-26T09:04:48;5.20;;;3.47;;
54388;SDS011;40975;50.390;8.640;2023-06-26T09:07:14;4.43;;;3.67;;
54388;SDS011;40975;50.390;8.640;2023-06-26T09:09:40;5.95;;;3.85;;
54388;SDS011;40975;50.390;8.640;2023-06-26T09:12:05;4.85;;;4.15;;
54388;SDS011;40975;50.390;8.640;2023-06-26T09:14:31;4.25;;;3.85;;
54388;SDS011;40975;50.390;8.640;2023-06-26T09:16:56;4.78;;;4.07;;
54388;SDS011;40975;50.390;8.640;2023-06-26T09:19:22;4.65;;;4.00;;
54388;SDS011;40975;50.390;8.640;2023-06-26T09:21:49;4.35;;;3.88;;
54388;SDS011;40975;50.390;8.640;2023-06-26T09:24:15;5.65;;;3.90;;
54388;SDS011;40975;50.390;8.640;2023-06-26T09:26:41;4.10;;;3.67;;
54388;SDS011;40975;50.390;8.640;2023-06-26T09:29:06;4.88;;;3.40;;
54388;SDS011;40975;50.390;8.640;2023-06-26T09:31:33;4.25;;;3.58;;
54388;SDS011;40975;50.390;8.640;2023-06-26T09:34:01;6.40;;;4.05;;
54388;SDS011;40975;50.390;8.640;2023-06-26T09:36:28;3.63;;;3.33;;
54388;SDS011;40975;50.390;8.640;2023-06-26T09:41:23;4.75;;;3.40;;
54388;SDS011;40975;50.390;8.640;2023-06-26T09:43:49;3.85;;;3.53;;
54388;SDS011;40975;50.390;8.640;2023-06-26T09:46:25;5.22;;;3.53;;
54388;SDS011;40975;50.390;8.640;2023-06-26T09:48:58;3.60;;;3.30;;
54388;SDS011;40975;50.390;8.640;2023-06-26T09:51:29;4.10;;;3.20;;
54388;SDS011;40975;50.390;8.640;2023-06-26T09:53:56;3.20;;;2.83;;
54388;SDS011;40975;50.390;8.640;2023-06-26T09:56:21;4.78;;;3.10;;
54388;SDS011;40975;50.390;8.640;2023-06-26T09:58:47;4.53;;;3.20;;
54388;SDS011;40975;50.390;8.640;2023-06-26T10:01:13;3.55;;;3.25;;
54388;SDS011;40975;50.390;8.640;2023-06-26T10:03:39;3.80;;;3.20;;
54388;SDS011;40975;50.390;8.640;2023-06-26T10:06:04;4.35;;;3.30;;
54388;SDS011;40975;50.390;8.640;2023-06-26T10:08:31;4.07;;;3.33;;
54388;SDS011;40975;50.390;8.640;2023-06-26T10:10:59;3.97;;;3.55;;
54388;SDS011;40975;50.390;8.640;2023-06-26T10:13:27;4.15;;;3.38;;
54388;SDS011;40975;50.390;8.640;2023-06-26T10:15:59;3.88;;;3.35;;
54388;SDS011;40975;50.390;8.640;2023-06-26T10:18:26;3.60;;;3.10;;
54388;SDS011;40975;50.390;8.640;2023-06-26T10:20:53;4.03;;;3.10;;
54388;SDS011;40975;50.390;8.640;2023-06-26T10:23:22;4.55;;;3.40;;
54388;SDS011;40975;50.390;8.640;2023-06-26T10:25:51;3.75;;;3.40;;
54388;SDS011;40975;50.390;8.640;2023-06-26T10:28:17;7.38;;;3.40;;
54388;SDS011;40975;50.390;8.640;2023-06-26T10:30:45;6.13;;;3.15;;
54388;SDS011;40975;50.390;8.640;2023-06-26T10:33:12;7.65;;;3.60;;
54388;SDS011;40975;50.390;8.640;2023-06-26T10:35:44;3.60;;;3.30;;
54388;SDS011;40975;50.390;8.640;2023-06-26T10:38:10;5.22;;;3.35;;
54388;SDS011;40975;50.390;8.640;2023-06-26T10:40:39;4.20;;;2.95;;
54388;SDS011;40975;50.390;8.640;2023-06-26T10:43:15;6.05;;;3.72;;
54388;SDS011;40975;50.390;8.640;2023-06-26T10:45:45;3.83;;;3.33;;
54388;SDS011;40975;50.390;8.640;2023-06-26T10:48:17;4.43;;;3.25;;
54388;SDS011;40975;50.390;8.640;2023-06-26T10:50:42;12.18;;;3.45;;
54388;SDS011;40975;50.390;8.640;2023-06-26T10:55:34;4.00;;;3.60;;
54388;SDS011;40975;50.390;8.640;2023-06-26T10:58:00;4.47;;;2.92;;
54388;SDS011;40975;50.390;8.640;2023-06-26T11:00:27;4.55;;;3.60;;
54388;SDS011;40975;50.390;8.640;2023-06-26T11:02:52;4.18;;;3.40;;
54388;SDS011;40975;50.390;8.640;2023-06-26T11:05:28;3.53;;;3.22;;
54388;SDS011;40975;50.390;8.640;2023-06-26T11:08:07;3.83;;;3.33;;
54388;SDS011;40975;50.390;8.640;2023-06-26T11:10:54;4.93;;;3.60;;
54388;SDS011;40975;50.390;8.640;2023-06-26T11:13:25;3.70;;;3.33;;
54388;SDS011;40975;50.390;8.640;2023-06-26T11:15:51;3.50;;;3.15;;
54388;SDS011;40975;50.390;8.640;2023-06-26T11:18:16;3.30;;;2.92;;
54388;SDS011;40975;50.390;8.640;2023-06-26T11:20:42;5.47;;;2.80;;
54388;SDS011;40975;50.390;8.640;2023-06-26T11:23:08;4.03;;;3.00;;
54388;SDS011;40975;50.390;8.640;2023-06-26T11:25:35;5.15;;;3.13;;
54388;SDS011;40975;50.390;8.640;2023-06-26T11:28:04;5.60;;;3.00;;
54388;SDS011;40975;50.390;8.640;2023-06-26T11:30:30;4.55;;;3.22;;
54388;SDS011;40975;50.390;8.640;2023-06-26T11:33:02;7.32;;;3.08;;
54388;SDS011;40975;50.390;8.640;2023-06-26T11:35:29;4.90;;;3.13;;
54388;SDS011;40975;50.390;8.640;2023-06-26T11:38:04;6.43;;;3.05;;
54388;SDS011;40975;50.390;8.640;2023-06-26T11:40:30;5.75;;;3.10;;
54388;SDS011;40975;50.390;8.640;2023-06-26T11:42:59;3.58;;;3.00;;
54388;SDS011;40975;50.390;8.640;2023-06-26T11:45:27;7.10;;;3.50;;
54388;SDS011;40975;50.390;8.640;2023-06-26T11:47:54;6.90;;;3.70;;
54388;SDS011;40975;50.390;8.640;2023-06-26T11:50:21;5.20;;;3.72;;
54388;SDS011;40975;50.390;8.640;2023-06-26T11:52:52;5.47;;;3.72;;
54388;SDS011;40975;50.390;8.640;2023-06-26T11:55:19;5.22;;;3.42;;
54388;SDS011;40975;50.390;8.640;2023-06-26T11:57:48;4.00;;;3.17;;
54388;SDS011;40975;50.390;8.640;2023-06-26T12:02:42;7.03;;;4.20;;
54388;SDS011;40975;50.390;8.640;2023-06-26T12:05:09;7.93;;;3.78;;
54388;SDS011;40975;50.390;8.640;2023-06-26T12:07:34;7.70;;;3.67;;
54388;SDS011;40975;50.390;8.640;2023-06-26T12:10:01;3.92;;;3.40;;
54388;SDS011;40975;50.390;8.640;2023-06-26T12:12:31;5.63;;;3.92;;
54388;SDS011;40975;50.390;8.640;2023-06-26T12:14:58;5.60;;;3.15;;
54388;SDS011;40975;50.390;8.640;2023-06-26T12:17:25;4.97;;;3.40;;
54388;SDS011;40975;50.390;8.640;2023-06-26T12:19:50;5.88;;;3.10;;
54388;SDS011;40975;50.390;8.640;2023-06-26T12:22:16;15.18;;;4.70;;
54388;SDS011;40975;50.390;8.640;2023-06-26T12:24:43;32.05;;;8.00;;
54388;SDS011;40975;50.390;8.640;2023-06-26T12:27:10;4.43;;;3.05;;
54388;SDS011;40975;50.390;8.640;2023-06-26T12:29:38;6.13;;;3.30;;
54388;SDS011;40975;50.390;8.640;2023-06-26T12:32:07;4.18;;;3.15;;
54388;SDS011;40975;50.390;8.640;2023-06-26T12:34:34;4.25;;;2.78;;
54388;SDS011;40975;50.390;8.640;2023-06-26T12:37:01;4.65;;;2.65;;
54388;SDS011;40975;50.390;8.640;2023-06-26T12:39:28;4.75;;;3.38;;
54388;SDS011;40975;50.390;8.640;2023-06-26T12:41:55;5.22;;;3.20;;
54388;SDS011;40975;50.390;8.640;2023-06-26T12:44:25;5.28;;;2.80;;
54388;SDS011;40975;50.390;8.640;2023-06-26T12:46:53;5.80;;;3.22;;
54388;SDS011;40975;50.390;8.640;2023-06-26T12:49:20;3.72;;;2.55;;
54388;SDS011;40975;50.390;8.640;2023-06-26T12:51:46;6.20;;;3.03;;
54388;SDS011;40975;50.390;8.640;2023-06-26T12:54:12;4.18;;;2.90;;
54388;SDS011;40975;50.390;8.640;2023-06-26T12:56:37;7.32;;;2.70;;
54388;SDS011;40975;50.390;8.640;2023-06-26T12:59:02;5.18;;;2.55;;
54388;SDS011;40975;50.390;8.640;2023-06-26T13:01:28;4.10;;;3.03;;
54388;SDS011;40975;50.390;8.640;2023-06-26T13:03:53;4.40;;;2.78;;
54388;SDS011;40975;50.390;8.640;2023-06-26T13:06:19;4.40;;;2.42;;
54388;SDS011;40975;50.390;8.640;2023-06-26T13:08:45;5.40;;;2.88;;
54388;SDS011;40975;50.390;8.640;2023-06-26T13:11:10;5.30;;;2.50;;
54388;SDS011;40975;50.390;8.640;2023-06-26T13:13:36;4.63;;;2.97;;
54388;SDS011;40975;50.390;8.640;2023-06-26T13:16:01;5.97;;;2.60;;
54388;SDS011;40975;50.390;8.640;2023-06-26T13:18:27;3.28;;;2.53;;
54388;SDS011;40975;50.390;8.640;2023-06-26T13:20:52;4.55;;;2.53;;
54388;SDS011;40975;50.390;8.640;2023-06-26T13:23:17;3.15;;;2.40;;
54388;SDS011;40975;50.390;8.640;2023-06-26T13:25:44;4.03;;;2.13;;
54388;SDS011;40975;50.390;8.640;2023-06-26T13:28:09;7.20;;;2.88;;
54388;SDS011;40975;50.390;8.640;2023-06-26T13:30:35;4.38;;;1.98;;
54388;SDS011;40975;50.390;8.640;2023-06-26T13:33:00;9.32;;;2.92;;
54388;SDS011;40975;50.390;8.640;2023-06-26T13:35:25;3.28;;;1.90;;
54388;SDS011;40975;50.390;8.640;2023-06-26T13:37:51;2.72;;;1.73;;
54388;SDS011;40975;50.390;8.640;2023-06-26T13:40:16;9.55;;;2.20;;
54388;SDS011;40975;50.390;8.640;2023-06-26T13:42:41;4.95;;;2.08;;
54388;SDS011;40975;50.390;8.640;2023-06-26T13:45:09;3.47;;;2.03;;
54388;SDS011;40975;50.390;8.640;2023-06-26T13:47:34;5.38;;;1.90;;
54388;SDS011;40975;50.390;8.640;2023-06-26T13:50:02;4.85;;;2.03;;
54388;SDS011;40975;50.390;8.640;2023-06-26T13:52:28;5.28;;;1.67;;
54388;SDS011;40975;50.390;8.640;2023-06-26T13:54:53;3.30;;;1.58;;
54388;SDS011;40975;50.390;8.640;2023-06-26T13:57:19;2.97;;;1.52;;
54388;SDS011;40975;50.390;8.640;2023-06-26T13:59:47;4.75;;;1.73;;
54388;SDS011;40975;50.390;8.640;2023-06-26T14:02:13;3.05;;;1.70;;
54388;SDS011;40975;50.390;8.640;2023-06-26T14:04:38;6.10;;;1.98;;
54388;SDS011;40975;50.390;8.640;2023-06-26T14:07:04;4.03;;;1.67;;
54388;SDS011;40975;50.390;8.640;2023-06-26T14:09:30;4.63;;;1.40;;
54388;SDS011;40975;50.390;8.640;2023-06-26T14:11:55;2.50;;;1.20;;
54388;SDS011;40975;50.390;8.640;2023-06-26T14:14:20;5.63;;;1.52;;
54388;SDS011;40975;50.390;8.640;2023-06-26T14:16:46;4.47;;;1.63;;
54388;SDS011;40975;50.390;8.640;2023-06-26T14:19:12;2.95;;;1.48;;
54388;SDS011;40975;50.390;8.640;2023-06-26T14:21:40;6.68;;;1.40;;
54388;SDS011;40975;50.390;8.640;2023-06-26T14:24:05;2.80;;;1.25;;
54388;SDS011;40975;50.390;8.640;2023-06-26T14:26:31;2.70;;;1.20;;
54388;SDS011;40975;50.390;8.640;2023-06-26T14:28:57;2.97;;;1.25;;
54388;SDS011;40975;50.390;8.640;2023-06-26T14:31:23;6.45;;;1.38;;
54388;SDS011;40975;50.390;8.640;2023-06-26T14:33:49;3.65;;;1.10;;
54388;SDS011;40975;50.390;8.640;2023-06-26T14:36:14;1.60;;;1.27;;
54388;SDS011;40975;50.390;8.640;2023-06-26T14:38:39;3.40;;;1.35;;
54388;SDS011;40975;50.390;8.640;2023-06-26T14:41:04;3.15;;;1.30;;
54388;SDS011;40975;50.390;8.640;2023-06-26T14:43:30;2.50;;;1.33;;
54388;SDS011;40975;50.390;8.640;2023-06-26T14:45:55;3.22;;;1.20;;
54388;SDS011;40975;50.390;8.640;2023-06-26T14:48:20;2.80;;;1.40;;
54388;SDS011;40975;50.390;8.640;2023-06-26T14:50:46;1.50;;;1.05;;
54388;SDS011;40975;50.390;8.640;2023-06-26T14:53:11;3.28;;;1.17;;
54388;SDS011;40975;50.390;8.640;2023-06-26T14:55:36;2.42;;;1.40;;
54388;SDS011;40975;50.390;8.640;2023-06-26T14:58:02;2.30;;;1.23;;
54388;SDS011;40975;50.390;8.640;2023-06-26T15:00:27;3.05;;;1.20;;
54388;SDS011;40975;50.390;8.640;2023-06-26T15:02:52;1.80;;;1.10;;